Colorado Springs, CO (80919)

10:32 AM MDT on July 29, 2016 (GMT -0600)
At the Orton-Urbina's | | Change Station

Elev 6700 ft 38.93 °N, 104.85 °W | Updated 1 minute ago

Scattered Clouds
Scattered Clouds
72.3 °F
Feels Like 76 °F
N
2.1
Wind Variable Wind from ESE
Gusts 5.0 mph

Today
High -- | Low -- °F
--% Chance of Precip.
Yesterday
High -- | Low -- °F
Precip. -- in
Pressure 30.26 in
Visibility 10.0 miles
Clouds Scattered Clouds 2500 ft
Heat Index 76 °F
Dew Point 58 °F
Humidity 60%
Rainfall Not available.
Snow Depth Not available.
5:58 AM 8:12 PM
Waning Crescent, 21% visible
SPECI KAFF 291613Z 13004KT 10SM SCT025 20/13 A3026 RMK AO2A RAB01
Pressure 30.26 in
Visibility 10.0 miles
Clouds Scattered Clouds 2500 ft
Heat Index 76 °F
Dew Point 58 °F
Humidity 60%
Rainfall Not available.
Snow Depth Not available.
5:58 AM 8:12 PM
Waning Crescent, 21% visible
SPECI KAFF 291613Z 13004KT 10SM SCT025 20/13 A3026 RMK AO2A RAB01

10-Day Weather Forecast

Almanac

Astronomy

Jul. 29, 2016 Rise Set
Actual Time
Civil Twilight
Nautical Twilight
Astronomical Twilight
Moon
Length of Visible Light
Length of Day
Tomorrow will be .
, % of the Moon is Illuminated

Today's Extremes

State Highs State Lows

Community

WunderPhotos

Upload Photos

1,928,367 photos uploaded!

WunderBlog® & News

Nearby

Air Quality

  Air Quality AQ Index Pollutant
Not available.

Snow Depth

Station Depth Elevation

Earthquake Activity

City Distance Mag. Time & Date
Minimum magnitude displayed is 2.5.

Coastal Water Temperatures

Place Temperature

Stations

Nearby Weather Stations

Station Location Temp. Windchill Dew Point Humidity Wind Precip. Elev Updated Type
                   

Watches & Warnings

There are currently no watches in effect.